CEB2H RPLL-RPVM
Flight info
| Callsign | CEB2H |
|---|---|
| Flight time | N/A |
| Altitude | 35000 |
| Route | IPATA2R IPATA W25 BATAY BATAY3P |
| Aircraft | A339/H-SADE1E2E3GHIJ3J5M1P2RWXY/LB2D1 |
Departure
| Time | N/A |
|---|---|
| Airport | Ninoy Aquino International Airport (RPLL) |
Arrival
| Time | 2026-05-05 15:04 |
|---|---|
| Airport | Mactan Cebu International Airport (RPVM) |
| Time | Latitude | Longitude | Altitude | Speed | Heading |
|---|---|---|---|---|---|
| 2026-05-05 14:28 | 12.71210 | 122.67925 | 34839 ft | 465 kts | 145° |
| 2026-05-05 14:28 | 12.68589 | 122.69888 | 34865 ft | 467 kts | 145° |
| 2026-05-05 14:29 | 12.63314 | 122.73820 | 34879 ft | 467 kts | 145° |
| 2026-05-05 14:29 | 12.58033 | 122.77753 | 34881 ft | 467 kts | 145° |
| 2026-05-05 14:30 | 12.52795 | 122.81658 | 34883 ft | 467 kts | 145° |
| 2026-05-05 14:30 | 12.47518 | 122.85592 | 34887 ft | 466 kts | 145° |
| 2026-05-05 14:31 | 12.42262 | 122.89510 | 34889 ft | 466 kts | 145° |
| 2026-05-05 14:31 | 12.37006 | 122.93427 | 34889 ft | 466 kts | 145° |
| 2026-05-05 14:32 | 12.31785 | 122.97312 | 34889 ft | 466 kts | 145° |
| 2026-05-05 14:32 | 12.26551 | 123.01191 | 34298 ft | 461 kts | 145° |
| 2026-05-05 14:33 | 12.23930 | 123.03133 | 33769 ft | 458 kts | 145° |
| 2026-05-05 14:33 | 12.21366 | 123.05035 | 33240 ft | 456 kts | 145° |
| 2026-05-05 14:33 | 12.18794 | 123.06943 | 32778 ft | 456 kts | 145° |
| 2026-05-05 14:33 | 12.16248 | 123.08833 | 32415 ft | 454 kts | 145° |
| 2026-05-05 14:34 | 12.13662 | 123.10751 | 32119 ft | 453 kts | 145° |
| 2026-05-05 14:34 | 12.11145 | 123.12618 | 31790 ft | 450 kts | 145° |
| 2026-05-05 14:34 | 12.08586 | 123.14516 | 31441 ft | 448 kts | 145° |
| 2026-05-05 14:34 | 12.06074 | 123.16380 | 31089 ft | 445 kts | 145° |
| 2026-05-05 14:35 | 12.03592 | 123.18221 | 30734 ft | 442 kts | 144° |
| 2026-05-05 14:35 | 12.01087 | 123.20079 | 30375 ft | 440 kts | 145° |
| 2026-05-05 14:35 | 11.98613 | 123.21913 | 30013 ft | 437 kts | 144° |
| 2026-05-05 14:35 | 11.96163 | 123.23728 | 29652 ft | 434 kts | 144° |
| 2026-05-05 14:36 | 11.93733 | 123.25528 | 29290 ft | 432 kts | 144° |
| 2026-05-05 14:36 | 11.91286 | 123.27341 | 28925 ft | 429 kts | 144° |
| 2026-05-05 14:36 | 11.88905 | 123.29105 | 28569 ft | 426 kts | 144° |
| 2026-05-05 14:36 | 11.86486 | 123.30897 | 28209 ft | 423 kts | 144° |
| 2026-05-05 14:37 | 11.84106 | 123.32659 | 27858 ft | 421 kts | 144° |
| 2026-05-05 14:37 | 11.81754 | 123.34402 | 27515 ft | 418 kts | 144° |
| 2026-05-05 14:37 | 11.79378 | 123.36159 | 27165 ft | 415 kts | 144° |
| 2026-05-05 14:37 | 11.77047 | 123.37884 | 26820 ft | 412 kts | 144° |
| 2026-05-05 14:38 | 11.74748 | 123.39585 | 26478 ft | 410 kts | 144° |
| 2026-05-05 14:38 | 11.72425 | 123.41304 | 26124 ft | 407 kts | 144° |
| 2026-05-05 14:38 | 11.70811 | 123.42497 | 25877 ft | 405 kts | 144° |
| 2026-05-05 14:38 | 11.68547 | 123.44172 | 25530 ft | 403 kts | 144° |
| 2026-05-05 14:39 | 11.66261 | 123.45861 | 25174 ft | 400 kts | 143° |
| 2026-05-05 14:39 | 11.64029 | 123.47510 | 24830 ft | 397 kts | 143° |
| 2026-05-05 14:39 | 11.61781 | 123.49171 | 24485 ft | 395 kts | 143° |
| 2026-05-05 14:39 | 11.59575 | 123.50800 | 24140 ft | 392 kts | 143° |
| 2026-05-05 14:40 | 11.57346 | 123.52447 | 23791 ft | 390 kts | 143° |
| 2026-05-05 14:40 | 11.55177 | 123.54049 | 23454 ft | 387 kts | 143° |
| 2026-05-05 14:40 | 11.52979 | 123.55673 | 23114 ft | 385 kts | 143° |
| 2026-05-05 14:40 | 11.50808 | 123.57276 | 22774 ft | 382 kts | 143° |
| 2026-05-05 14:41 | 11.48670 | 123.58855 | 22430 ft | 380 kts | 143° |
| 2026-05-05 14:41 | 11.46521 | 123.60440 | 22090 ft | 377 kts | 143° |
| 2026-05-05 14:41 | 11.44392 | 123.62011 | 21753 ft | 375 kts | 143° |
| 2026-05-05 14:41 | 11.42276 | 123.63572 | 21410 ft | 373 kts | 143° |
| 2026-05-05 14:42 | 11.40188 | 123.65113 | 21067 ft | 371 kts | 143° |
| 2026-05-05 14:42 | 11.38086 | 123.66662 | 20720 ft | 369 kts | 143° |
| 2026-05-05 14:42 | 11.36004 | 123.68198 | 20378 ft | 367 kts | 143° |
| 2026-05-05 14:42 | 11.33934 | 123.69724 | 20036 ft | 365 kts | 143° |
| 2026-05-05 14:43 | 11.31897 | 123.71227 | 19697 ft | 363 kts | 143° |
| 2026-05-05 14:43 | 11.29820 | 123.72758 | 19349 ft | 362 kts | 142° |
| 2026-05-05 14:43 | 11.27794 | 123.74252 | 19010 ft | 360 kts | 142° |
| 2026-05-05 14:43 | 11.25755 | 123.75755 | 18665 ft | 359 kts | 142° |
| 2026-05-05 14:44 | 11.23757 | 123.77228 | 18329 ft | 357 kts | 142° |
| 2026-05-05 14:44 | 11.21720 | 123.78731 | 17987 ft | 355 kts | 142° |
| 2026-05-05 14:44 | 11.19708 | 123.80212 | 17647 ft | 354 kts | 142° |
| 2026-05-05 14:44 | 11.17718 | 123.81676 | 17308 ft | 353 kts | 142° |
| 2026-05-05 14:45 | 11.15708 | 123.83114 | 16960 ft | 352 kts | 148° |
| 2026-05-05 14:45 | 11.13413 | 123.83942 | 16593 ft | 356 kts | 171° |
| 2026-05-05 14:45 | 11.10921 | 123.83793 | 16252 ft | 358 kts | 192° |
| 2026-05-05 14:45 | 11.08513 | 123.83107 | 15914 ft | 357 kts | 194° |
| 2026-05-05 14:46 | 11.06130 | 123.82413 | 15569 ft | 356 kts | 194° |
| 2026-05-05 14:46 | 11.03727 | 123.81723 | 15227 ft | 355 kts | 194° |
| 2026-05-05 14:46 | 11.01362 | 123.81050 | 14891 ft | 354 kts | 194° |
| 2026-05-05 14:46 | 10.98977 | 123.80378 | 14556 ft | 352 kts | 194° |
| 2026-05-05 14:47 | 10.96604 | 123.79712 | 14224 ft | 351 kts | 193° |
| 2026-05-05 14:47 | 10.94262 | 123.79057 | 13892 ft | 350 kts | 194° |
| 2026-05-05 14:47 | 10.91901 | 123.78399 | 13553 ft | 348 kts | 194° |
| 2026-05-05 14:47 | 10.89572 | 123.77749 | 13220 ft | 347 kts | 194° |
| 2026-05-05 14:48 | 10.87212 | 123.77091 | 12879 ft | 346 kts | 194° |
| 2026-05-05 14:48 | 10.84899 | 123.76445 | 12547 ft | 345 kts | 194° |
| 2026-05-05 14:48 | 10.82579 | 123.75797 | 12214 ft | 344 kts | 194° |
| 2026-05-05 14:48 | 10.80274 | 123.75154 | 11879 ft | 342 kts | 194° |
| 2026-05-05 14:49 | 10.77978 | 123.74513 | 11548 ft | 341 kts | 193° |
| 2026-05-05 14:49 | 10.75691 | 123.73875 | 11222 ft | 339 kts | 193° |
| 2026-05-05 14:49 | 10.73399 | 123.73235 | 10896 ft | 337 kts | 193° |
| 2026-05-05 14:49 | 10.71134 | 123.72604 | 10571 ft | 336 kts | 193° |
| 2026-05-05 14:50 | 10.68869 | 123.71973 | 10251 ft | 334 kts | 193° |
| 2026-05-05 14:50 | 10.66638 | 123.71352 | 10041 ft | 324 kts | 193° |
| 2026-05-05 14:50 | 10.64535 | 123.70764 | 10022 ft | 306 kts | 193° |
| 2026-05-05 14:50 | 10.62514 | 123.70200 | 10024 ft | 293 kts | 193° |
| 2026-05-05 14:51 | 10.60538 | 123.69651 | 9766 ft | 292 kts | 193° |
| 2026-05-05 14:51 | 10.58576 | 123.69105 | 9482 ft | 292 kts | 193° |
| 2026-05-05 14:51 | 10.56611 | 123.68559 | 9208 ft | 291 kts | 193° |
| 2026-05-05 14:51 | 10.54625 | 123.68006 | 8933 ft | 291 kts | 193° |
| 2026-05-05 14:52 | 10.52682 | 123.67465 | 8665 ft | 290 kts | 193° |
| 2026-05-05 14:52 | 10.50726 | 123.66921 | 8395 ft | 289 kts | 193° |
| 2026-05-05 14:52 | 10.48780 | 123.66379 | 8127 ft | 289 kts | 193° |
| 2026-05-05 14:52 | 10.46823 | 123.65835 | 7854 ft | 288 kts | 193° |
| 2026-05-05 14:53 | 10.44888 | 123.65296 | 7585 ft | 287 kts | 193° |
| 2026-05-05 14:53 | 10.42931 | 123.64752 | 7315 ft | 287 kts | 193° |
| 2026-05-05 14:53 | 10.40999 | 123.64216 | 7044 ft | 286 kts | 193° |
| 2026-05-05 14:53 | 10.39085 | 123.63684 | 6773 ft | 286 kts | 193° |
| 2026-05-05 14:54 | 10.37144 | 123.63144 | 6497 ft | 286 kts | 193° |
| 2026-05-05 14:54 | 10.35177 | 123.62833 | 6181 ft | 282 kts | 171° |
| 2026-05-05 14:54 | 10.33377 | 123.63515 | 5903 ft | 275 kts | 141° |
| 2026-05-05 14:54 | 10.32015 | 123.64842 | 5649 ft | 272 kts | 131° |
| 2026-05-05 14:55 | 10.30688 | 123.66245 | 5376 ft | 273 kts | 132° |
| 2026-05-05 14:55 | 10.29359 | 123.67628 | 5108 ft | 273 kts | 132° |
| 2026-05-05 14:55 | 10.28025 | 123.69003 | 4879 ft | 271 kts | 133° |
| 2026-05-05 14:55 | 10.26685 | 123.70373 | 4595 ft | 272 kts | 133° |
| 2026-05-05 14:56 | 10.25347 | 123.71737 | 4379 ft | 270 kts | 133° |
| 2026-05-05 14:56 | 10.24040 | 123.73065 | 4094 ft | 263 kts | 133° |
| 2026-05-05 14:56 | 10.22768 | 123.74358 | 3997 ft | 249 kts | 133° |
| 2026-05-05 14:56 | 10.21565 | 123.75579 | 3856 ft | 240 kts | 133° |
| 2026-05-05 14:57 | 10.20402 | 123.76761 | 3667 ft | 231 kts | 133° |
| 2026-05-05 14:57 | 10.19301 | 123.77878 | 3505 ft | 222 kts | 133° |
| 2026-05-05 14:57 | 10.18216 | 123.78979 | 3359 ft | 212 kts | 132° |
| 2026-05-05 14:57 | 10.17195 | 123.80016 | 3228 ft | 202 kts | 132° |
| 2026-05-05 14:58 | 10.16755 | 123.80464 | 3174 ft | 197 kts | 130° |
| 2026-05-05 14:58 | 10.16087 | 123.81610 | 3016 ft | 183 kts | 100° |
| 2026-05-05 14:58 | 10.16111 | 123.82853 | 2902 ft | 170 kts | 71° |
| 2026-05-05 14:58 | 10.16678 | 123.83863 | 2828 ft | 165 kts | 48° |
| 2026-05-05 14:59 | 10.17480 | 123.84688 | 2759 ft | 166 kts | 45° |
| 2026-05-05 14:59 | 10.18288 | 123.85478 | 2667 ft | 154 kts | 44° |
| 2026-05-05 14:59 | 10.19051 | 123.86227 | 2585 ft | 148 kts | 45° |
| 2026-05-05 14:59 | 10.19767 | 123.86935 | 2507 ft | 143 kts | 45° |
| 2026-05-05 15:00 | 10.20481 | 123.87645 | 2445 ft | 142 kts | 45° |
| 2026-05-05 15:00 | 10.20960 | 123.88123 | 2401 ft | 143 kts | 45° |
| 2026-05-05 15:00 | 10.21906 | 123.89069 | 2368 ft | 142 kts | 45° |
| 2026-05-05 15:00 | 10.22611 | 123.89774 | 2382 ft | 142 kts | 45° |
| 2026-05-05 15:01 | 10.23321 | 123.90481 | 2244 ft | 145 kts | 45° |
| 2026-05-05 15:01 | 10.24039 | 123.91206 | 1942 ft | 145 kts | 45° |
| 2026-05-05 15:01 | 10.24755 | 123.91933 | 1643 ft | 146 kts | 46° |
| 2026-05-05 15:01 | 10.25474 | 123.92676 | 1334 ft | 147 kts | 46° |
| 2026-05-05 15:02 | 10.26205 | 123.93428 | 1025 ft | 148 kts | 44° |
| 2026-05-05 15:02 | 10.26935 | 123.94141 | 811 ft | 143 kts | 43° |
| 2026-05-05 15:02 | 10.27650 | 123.94834 | 559 ft | 141 kts | 44° |
| 2026-05-05 15:02 | 10.28341 | 123.95529 | 375 ft | 137 kts | 44° |
| 2026-05-05 15:03 | 10.29023 | 123.96208 | 269 ft | 138 kts | 44° |
| 2026-05-05 15:03 | 10.29709 | 123.96892 | 88 ft | 137 kts | 44° |
| 2026-05-05 15:03 | 10.30353 | 123.97538 | 54 ft | 114 kts | 45° |
| 2026-05-05 15:03 | 10.30788 | 123.97976 | 54 ft | 61 kts | 43° |
| 2026-05-05 15:04 | 10.30983 | 123.98171 | 54 ft | 28 kts | 44° |
| 2026-05-05 15:04 | 10.31132 | 123.98289 | 54 ft | 25 kts | 28° |
| 2026-05-05 15:04 | 10.31264 | 123.98340 | 54 ft | 13 kts | 15° |
| 2026-05-05 15:04 | 10.31328 | 123.98353 | 54 ft | 7 kts | 360° |
| 2026-05-05 15:05 | 10.31432 | 123.98281 | 54 ft | 10 kts | 315° |
| 2026-05-05 15:05 | 10.31488 | 123.98225 | 54 ft | 11 kts | 315° |
| 2026-05-05 15:05 | 10.31544 | 123.98167 | 54 ft | 10 kts | 315° |
| 2026-05-05 15:06 | 10.31566 | 123.98113 | 54 ft | 8 kts | 250° |
| 2026-05-05 15:06 | 10.31535 | 123.98077 | 54 ft | 6 kts | 227° |
| 2026-05-05 15:06 | 10.31497 | 123.98037 | 54 ft | 8 kts | 225° |
| 2026-05-05 15:06 | 10.31449 | 123.97989 | 54 ft | 10 kts | 224° |
| 2026-05-05 15:07 | 10.31409 | 123.97948 | 54 ft | 5 kts | 232° |
| 2026-05-05 15:07 | 10.31416 | 123.97926 | 54 ft | 5 kts | 311° |
| 2026-05-05 15:07 | 10.31445 | 123.97895 | 54 ft | 6 kts | 314° |
| 2026-05-05 15:07 | 10.31453 | 123.97887 | 54 ft | 0 kts | 314° |